Time;durP1;ratioP1;P1;durP2;ratioP2;P2;SDS_P1;SDS_P2;PMS_P1;PMS_P2;Temp;Humidity;BMP_temperature;BMP_pressure;BME280_temperature;BME280_humidity;BME280_pressure;Samples;Min_cycle;Max_cycle;Signal;HPM_P1;HPM_P2
2022/12/02 00:02:03;;;;;;;77.53;24.35;;;3.60;99.90;;;;;;5061101;28;20029;-72
2022/12/02 00:04:29;;;;;;;81.78;24.08;;;3.60;99.90;;;;;;5061538;28;20025;-71
2022/12/02 00:06:57;;;;;;;69.03;22.65;;;3.50;99.90;;;;;;5061497;28;20078;-71
2022/12/02 00:09:35;;;;;;;76.82;24.08;;;3.50;99.90;;;;;;5061467;28;20556;-69
2022/12/02 00:12:15;;;;;;;76.95;23.42;;;3.40;99.90;;;;;;5061151;28;20053;-71
2022/12/02 00:14:40;;;;;;;82.95;24.10;;;3.40;99.90;;;;;;5060612;28;20025;-69
2022/12/02 00:17:06;;;;;;;64.68;22.45;;;3.30;99.90;;;;;;5061142;28;20051;-72
2022/12/02 00:19:32;;;;;;;81.50;23.42;;;3.30;99.90;;;;;;5061112;28;20389;-72
2022/12/02 00:21:57;;;;;;;78.53;23.60;;;3.30;99.90;;;;;;5061676;28;20055;-71
2022/12/02 00:24:23;;;;;;;74.47;24.77;;;3.30;99.90;;;;;;5061456;28;20021;-69
2022/12/02 00:26:48;;;;;;;79.60;23.75;;;3.30;99.90;;;;;;5061063;28;20025;-70
2022/12/02 00:29:14;;;;;;;74.63;25.35;;;3.30;99.90;;;;;;5060871;28;20037;-70
2022/12/02 00:31:40;;;;;;;81.05;23.02;;;3.30;99.90;;;;;;5059253;28;20104;-71
2022/12/02 00:34:05;;;;;;;77.38;24.08;;;3.30;99.90;;;;;;5060449;28;20032;-70
2022/12/02 00:36:31;;;;;;;83.82;24.48;;;3.30;99.90;;;;;;5060951;28;20044;-71
2022/12/02 00:38:57;;;;;;;72.78;23.85;;;3.30;99.90;;;;;;5060872;28;20029;-69
2022/12/02 00:41:23;;;;;;;81.22;23.25;;;3.40;99.90;;;;;;5050872;28;20028;-71
2022/12/02 00:46:34;;;;;;;84.25;24.70;;;3.40;99.90;;;;;;5060793;28;20039;-72
2022/12/02 00:49:07;;;;;;;81.43;25.25;;;3.40;99.90;;;;;;5060806;28;20033;-70
2022/12/02 00:51:35;;;;;;;62.95;21.70;;;3.40;99.90;;;;;;5060743;28;20094;-71
2022/12/02 00:54:01;;;;;;;73.15;23.90;;;3.40;99.90;;;;;;5058898;28;20112;-70
2022/12/02 00:56:27;;;;;;;70.50;23.85;;;3.40;99.90;;;;;;5060598;28;20028;-71
2022/12/02 00:58:53;;;;;;;72.95;24.67;;;3.40;99.90;;;;;;5060411;28;20040;-70
2022/12/02 01:01:19;;;;;;;79.10;24.20;;;3.40;99.90;;;;;;5060250;28;20032;-71
2022/12/02 01:03:44;;;;;;;73.97;24.63;;;3.40;99.90;;;;;;5060276;28;21069;-70
2022/12/02 01:06:10;;;;;;;82.32;24.70;;;3.40;99.90;;;;;;5059814;28;20543;-71
2022/12/02 01:08:36;;;;;;;82.68;23.98;;;3.40;99.90;;;;;;5060799;28;20032;-70
2022/12/02 01:11:02;;;;;;;67.78;22.88;;;3.40;99.90;;;;;;5060740;28;20033;-70
2022/12/02 01:13:27;;;;;;;71.07;23.75;;;3.40;99.90;;;;;;5060311;28;20092;-69
2022/12/02 01:15:54;;;;;;;80.35;24.45;;;3.40;99.90;;;;;;5059526;28;20037;-71
2022/12/02 01:18:19;;;;;;;72.03;24.23;;;3.50;99.90;;;;;;5060586;28;20074;-72
2022/12/02 01:20:45;;;;;;;65.30;22.15;;;3.40;99.90;;;;;;5059189;28;20013;-69
2022/12/02 01:23:11;;;;;;;69.85;23.38;;;3.40;99.90;;;;;;5060255;28;20370;-70
2022/12/02 01:25:37;;;;;;;74.22;22.83;;;3.40;99.90;;;;;;5060177;28;20029;-70
2022/12/02 01:28:02;;;;;;;73.95;24.38;;;3.50;99.90;;;;;;5059810;28;20044;-71
2022/12/02 01:30:28;;;;;;;78.35;24.77;;;3.40;99.90;;;;;;5058666;28;20045;-70
2022/12/02 01:32:54;;;;;;;69.10;23.15;;;3.50;99.90;;;;;;5058450;28;20040;-72
2022/12/02 01:35:20;;;;;;;76.10;22.85;;;3.40;99.90;;;;;;5056637;28;20029;-71
2022/12/02 01:37:46;;;;;;;69.28;23.80;;;3.40;99.90;;;;;;5058489;28;20049;-70
2022/12/02 01:40:13;;;;;;;63.58;23.08;;;3.40;99.90;;;;;;5057479;28;20060;-69
2022/12/02 01:42:39;;;;;;;69.72;23.33;;;3.40;99.90;;;;;;5056531;28;20025;-71
2022/12/02 01:45:07;;;;;;;80.70;23.17;;;3.40;99.90;;;;;;5058398;28;20081;-70
2022/12/02 01:47:36;;;;;;;74.07;24.63;;;3.40;99.90;;;;;;5057756;28;20039;-70
2022/12/02 01:50:03;;;;;;;84.55;25.27;;;3.40;99.90;;;;;;5057723;28;20033;-70
2022/12/02 01:52:29;;;;;;;71.18;23.23;;;3.40;99.90;;;;;;5057606;28;20036;-70
2022/12/02 01:54:55;;;;;;;74.40;24.85;;;3.40;99.90;;;;;;5057547;28;20025;-70
2022/12/02 01:57:26;;;;;;;75.05;24.77;;;3.40;99.90;;;;;;5058199;28;20029;-70
2022/12/02 01:59:51;;;;;;;77.80;24.83;;;3.40;99.90;;;;;;5057434;28;20033;-69
2022/12/02 02:02:35;;;;;;;83.38;24.83;;;3.40;99.90;;;;;;5057947;28;20032;-70
2022/12/02 02:05:05;;;;;;;74.15;24.40;;;3.40;99.90;;;;;;5060248;28;20029;-68
2022/12/02 02:07:32;;;;;;;82.97;25.65;;;3.40;99.90;;;;;;5061530;28;20036;-72
2022/12/02 02:09:58;;;;;;;88.03;26.13;;;3.40;99.90;;;;;;5061797;28;20035;-70
2022/12/02 02:12:24;;;;;;;85.47;24.85;;;3.40;99.90;;;;;;5061175;28;20068;-72
2022/12/02 02:14:50;;;;;;;75.60;25.05;;;3.40;99.90;;;;;;5061745;28;20025;-69
2022/12/02 02:17:16;;;;;;;88.63;25.38;;;3.40;99.90;;;;;;5061271;28;20027;-70
2022/12/02 02:19:43;;;;;;;95.72;26.80;;;3.40;99.90;;;;;;5060425;28;20063;-69
2022/12/02 02:22:20;;;;;;;88.03;26.65;;;3.40;99.90;;;;;;5060790;28;20035;-70
2022/12/02 02:24:46;;;;;;;74.47;23.80;;;3.40;99.90;;;;;;5059935;28;20108;-70
2022/12/02 02:27:12;;;;;;;88.28;25.05;;;3.40;99.90;;;;;;5043103;28;20088;-69
2022/12/02 02:29:37;;;;;;;79.95;24.67;;;3.40;99.90;;;;;;5059694;28;20041;-71
2022/12/02 02:32:03;;;;;;;78.47;24.52;;;3.40;99.90;;;;;;5059909;28;20040;-69
2022/12/02 02:34:29;;;;;;;76.85;25.08;;;3.40;99.90;;;;;;5061696;28;20028;-69
2022/12/02 02:36:55;;;;;;;83.03;26.27;;;3.40;99.90;;;;;;5062210;28;20025;-69
2022/12/02 02:39:22;;;;;;;72.72;24.20;;;3.40;99.90;;;;;;5058972;28;20711;-69
2022/12/02 02:41:48;;;;;;;76.97;25.40;;;3.40;99.90;;;;;;5061399;28;20017;-69
2022/12/02 02:44:15;;;;;;;69.30;24.40;;;3.40;99.90;;;;;;5061840;28;20043;-69
2022/12/02 02:46:40;;;;;;;78.03;25.10;;;3.40;99.90;;;;;;5060492;28;20096;-69
2022/12/02 02:49:06;;;;;;;77.53;24.75;;;3.40;99.90;;;;;;5060569;28;20036;-69
2022/12/02 02:51:32;;;;;;;73.60;24.20;;;3.40;99.90;;;;;;5060288;28;20029;-70
2022/12/02 02:53:58;;;;;;;73.32;24.58;;;3.40;99.90;;;;;;5060141;28;20039;-70
2022/12/02 02:56:24;;;;;;;83.45;25.90;;;3.40;99.90;;;;;;5061075;28;20029;-69
2022/12/02 02:58:49;;;;;;;75.35;23.42;;;3.40;99.90;;;;;;5060950;28;20044;-70
2022/12/02 03:01:23;;;;;;;85.68;25.15;;;3.40;99.90;;;;;;5059897;28;20033;-69
2022/12/02 03:04:00;;;;;;;84.22;25.63;;;3.40;99.90;;;;;;5060635;28;20032;-69
2022/12/02 03:06:29;;;;;;;85.00;26.20;;;3.40;99.90;;;;;;5060259;28;20029;-70
2022/12/02 03:08:55;;;;;;;80.93;26.73;;;3.40;99.90;;;;;;5060541;28;20104;-69
2022/12/02 03:11:21;;;;;;;82.22;25.50;;;3.40;99.90;;;;;;5061186;28;20040;-69
2022/12/02 03:13:49;;;;;;;85.35;26.98;;;3.40;99.90;;;;;;5059697;28;20036;-70
2022/12/02 03:16:17;;;;;;;99.60;29.55;;;3.40;99.90;;;;;;5059572;28;20048;-69
2022/12/02 03:18:45;;;;;;;87.50;30.15;;;3.40;99.90;;;;;;5060724;28;20024;-70
2022/12/02 03:21:12;;;;;;;88.63;29.92;;;3.30;99.90;;;;;;5060045;28;20020;-70
2022/12/02 03:23:38;;;;;;;105.10;33.67;;;3.40;99.90;;;;;;5060304;28;20137;-70
2022/12/02 03:26:04;;;;;;;104.20;33.70;;;3.30;99.90;;;;;;5060248;28;20362;-70
2022/12/02 03:28:31;;;;;;;106.15;34.15;;;3.30;99.90;;;;;;5060241;28;20056;-70
2022/12/02 03:30:56;;;;;;;110.03;36.95;;;3.30;99.90;;;;;;5060016;28;20107;-71
2022/12/02 03:33:23;;;;;;;99.40;32.75;;;3.20;99.90;;;;;;5059556;28;20493;-70
2022/12/02 03:35:49;;;;;;;110.40;36.30;;;3.20;99.90;;;;;;5059956;28;20082;-69
2022/12/02 03:38:16;;;;;;;104.60;34.50;;;3.20;99.90;;;;;;5060652;28;20521;-69
2022/12/02 03:40:42;;;;;;;107.72;34.65;;;3.20;99.90;;;;;;5060441;28;20020;-69
2022/12/02 03:43:08;;;;;;;104.03;35.50;;;3.20;99.90;;;;;;5059904;28;20047;-69
2022/12/02 03:45:34;;;;;;;94.05;33.15;;;3.20;99.90;;;;;;5059684;28;20025;-70
2022/12/02 03:48:03;;;;;;;107.13;33.47;;;3.30;99.90;;;;;;5060152;28;20040;-70
2022/12/02 03:50:28;;;;;;;100.78;35.05;;;3.20;99.90;;;;;;5060228;28;20115;-70
2022/12/02 03:52:54;;;;;;;112.30;34.53;;;3.20;99.90;;;;;;5059947;28;20060;-69
2022/12/02 03:55:20;;;;;;;103.10;34.83;;;3.30;99.90;;;;;;5059977;28;20048;-70
2022/12/02 03:57:46;;;;;;;103.82;33.85;;;3.20;99.90;;;;;;5059657;28;20108;-71
2022/12/02 04:00:13;;;;;;;94.75;31.55;;;3.20;99.90;;;;;;5059713;28;20090;-69
2022/12/02 04:02:39;;;;;;;105.10;33.97;;;3.20;99.90;;;;;;5060676;28;20085;-70
2022/12/02 04:05:05;;;;;;;108.50;32.28;;;3.20;99.90;;;;;;5060772;28;20040;-69
2022/12/02 04:07:40;;;;;;;95.00;31.75;;;3.20;99.90;;;;;;5060805;28;20033;-69
2022/12/02 04:10:06;;;;;;;89.03;31.08;;;3.20;99.90;;;;;;5060235;28;20032;-70
2022/12/02 04:12:37;;;;;;;92.15;29.48;;;3.10;99.90;;;;;;5060980;28;20021;-70
2022/12/02 04:15:03;;;;;;;89.47;28.95;;;3.10;99.90;;;;;;5060501;28;20040;-70
2022/12/02 04:17:29;;;;;;;99.53;29.98;;;3.10;99.90;;;;;;5061269;28;20433;-68
2022/12/02 04:19:55;;;;;;;79.35;27.13;;;3.10;99.90;;;;;;5060042;28;20033;-69
2022/12/02 04:22:20;;;;;;;81.95;26.02;;;3.10;99.90;;;;;;5060953;28;20068;-68
2022/12/02 04:24:46;;;;;;;76.72;26.80;;;3.10;99.90;;;;;;5060044;28;20028;-72
2022/12/02 04:27:11;;;;;;;76.35;25.42;;;3.10;99.90;;;;;;5060744;28;20037;-72
2022/12/02 04:29:37;;;;;;;81.10;26.30;;;3.00;99.90;;;;;;5060669;28;20028;-70
2022/12/02 04:32:03;;;;;;;89.93;25.98;;;2.90;99.90;;;;;;5060616;28;20377;-69
2022/12/02 04:34:29;;;;;;;84.38;25.75;;;2.90;99.90;;;;;;5061201;28;20013;-69
2022/12/02 04:36:54;;;;;;;79.75;25.33;;;2.90;99.90;;;;;;5060923;28;20040;-70
2022/12/02 04:39:20;;;;;;;90.78;26.23;;;2.90;99.90;;;;;;5060814;28;20020;-69
2022/12/02 04:41:46;;;;;;;100.25;26.83;;;2.90;99.90;;;;;;5061065;28;20057;-69
2022/12/02 04:44:11;;;;;;;90.80;25.27;;;2.90;99.90;;;;;;5060573;28;20035;-69
2022/12/02 04:46:37;;;;;;;93.30;26.67;;;2.80;99.90;;;;;;5060303;28;20056;-69
2022/12/02 04:49:03;;;;;;;89.43;25.70;;;2.80;99.90;;;;;;5061334;28;20044;-69
2022/12/02 04:51:29;;;;;;;96.68;26.00;;;2.60;99.90;;;;;;5060845;28;20083;-69
2022/12/02 04:53:54;;;;;;;93.65;26.83;;;2.60;99.90;;;;;;5060549;28;20052;-70
2022/12/02 04:56:20;;;;;;;104.20;26.67;;;2.70;99.90;;;;;;5059686;28;20107;-69
2022/12/02 04:58:45;;;;;;;87.78;26.20;;;2.60;99.90;;;;;;5060775;28;20465;-69
2022/12/02 05:01:11;;;;;;;81.50;25.80;;;2.50;99.90;;;;;;5060776;28;20021;-70
2022/12/02 05:03:37;;;;;;;96.07;27.08;;;2.50;99.90;;;;;;5060758;28;20040;-70
2022/12/02 05:06:02;;;;;;;86.30;27.88;;;2.50;99.90;;;;;;5060157;28;20104;-70
2022/12/02 05:08:28;;;;;;;86.00;28.65;;;2.50;99.90;;;;;;5060634;28;20032;-71
2022/12/02 05:10:54;;;;;;;90.28;27.85;;;2.50;99.90;;;;;;5060446;28;20022;-69
2022/12/02 05:13:19;;;;;;;82.85;25.52;;;2.50;99.90;;;;;;5060483;28;20017;-68
2022/12/02 05:15:45;;;;;;;84.03;25.92;;;2.50;99.90;;;;;;5060143;28;20029;-68
2022/12/02 05:18:10;;;;;;;87.05;27.52;;;2.50;99.90;;;;;;5059718;28;20036;-68
2022/12/02 05:20:36;;;;;;;89.78;28.58;;;2.50;99.90;;;;;;5060129;28;20036;-70
2022/12/02 05:23:02;;;;;;;93.60;29.98;;;2.50;99.90;;;;;;5059927;28;20017;-71
2022/12/02 05:25:28;;;;;;;90.05;28.92;;;2.50;99.90;;;;;;5059238;28;20037;-69
2022/12/02 05:27:54;;;;;;;91.72;30.08;;;2.40;99.90;;;;;;5058317;28;20033;-72
2022/12/02 05:30:20;;;;;;;93.15;28.63;;;2.40;99.90;;;;;;5058363;28;20060;-71
2022/12/02 05:32:46;;;;;;;94.47;29.65;;;2.40;99.90;;;;;;5058959;28;20037;-71
2022/12/02 05:35:11;;;;;;;90.93;29.65;;;2.30;99.90;;;;;;5059733;28;20036;-71
2022/12/02 05:37:37;;;;;;;91.22;29.40;;;2.30;99.90;;;;;;5058932;28;20033;-70
2022/12/02 05:40:03;;;;;;;92.38;29.17;;;2.30;99.90;;;;;;5061762;28;20086;-68
2022/12/02 05:42:29;;;;;;;101.00;29.85;;;2.30;99.90;;;;;;5060411;28;20055;-69
2022/12/02 05:44:59;;;;;;;95.00;30.90;;;2.30;99.90;;;;;;5062905;28;20029;-69
2022/12/02 05:47:28;;;;;;;98.93;31.67;;;2.30;99.90;;;;;;5062783;28;20044;-69
2022/12/02 05:49:54;;;;;;;90.22;30.58;;;2.30;99.90;;;;;;5062718;28;20025;-69
2022/12/02 05:52:24;;;;;;;97.63;31.80;;;2.30;99.90;;;;;;5061263;28;20048;-69
2022/12/02 05:54:55;;;;;;;93.13;30.83;;;2.30;99.90;;;;;;5062747;28;20033;-70
2022/12/02 05:57:24;;;;;;;100.40;30.88;;;2.30;99.90;;;;;;5062258;28;20448;-69
2022/12/02 05:59:54;;;;;;;87.60;29.75;;;2.20;99.90;;;;;;5062299;28;20025;-70
2022/12/02 06:02:31;;;;;;;92.13;30.95;;;2.30;99.90;;;;;;5062006;28;20726;-69
2022/12/02 06:04:57;;;;;;;99.65;30.38;;;2.30;99.90;;;;;;5061349;28;20033;-68
2022/12/02 06:07:23;;;;;;;104.75;30.08;;;2.30;99.90;;;;;;5062152;28;20043;-69
2022/12/02 06:09:51;;;;;;;100.82;32.22;;;2.30;99.90;;;;;;5062286;28;20443;-69
2022/12/02 06:12:17;;;;;;;98.43;31.60;;;2.30;99.90;;;;;;5062084;28;20017;-69
2022/12/02 06:14:51;;;;;;;98.03;31.75;;;2.30;99.90;;;;;;5062296;28;20028;-69
2022/12/02 06:17:17;;;;;;;95.82;30.23;;;2.30;99.90;;;;;;5063134;28;20025;-70
2022/12/02 06:19:55;;;;;;;103.10;31.80;;;2.30;99.90;;;;;;5062625;28;20067;-68
2022/12/02 06:22:33;;;;;;;99.97;30.65;;;2.30;99.90;;;;;;5064010;28;20620;-68
2022/12/02 06:25:05;;;;;;;102.10;32.17;;;2.30;99.90;;;;;;5063913;28;20032;-68
2022/12/02 06:27:33;;;;;;;94.57;32.92;;;2.40;99.90;;;;;;5063052;28;20439;-70
2022/12/02 06:30:03;;;;;;;105.63;34.55;;;2.40;99.90;;;;;;5062383;28;20056;-70
2022/12/02 06:32:42;;;;;;;117.35;33.97;;;2.40;99.90;;;;;;5063326;28;20025;-70
2022/12/02 06:35:29;;;;;;;99.35;32.03;;;2.30;99.90;;;;;;5062819;28;20520;-71
2022/12/02 06:37:57;;;;;;;104.35;33.13;;;2.40;99.90;;;;;;5062326;28;20044;-70
2022/12/02 06:40:30;;;;;;;100.95;32.25;;;2.40;99.90;;;;;;5061988;28;20423;-70
2022/12/02 06:43:01;;;;;;;97.50;33.15;;;2.40;99.90;;;;;;5061359;28;20028;-69
2022/12/02 06:45:30;;;;;;;103.63;35.08;;;2.40;99.90;;;;;;5062714;28;20029;-68
2022/12/02 06:48:15;;;;;;;109.38;32.65;;;2.40;99.90;;;;;;5061895;28;20040;-69
2022/12/02 06:50:45;;;;;;;101.88;34.47;;;2.40;99.90;;;;;;5057757;28;20029;-69
2022/12/02 06:53:39;;;;;;;95.55;34.08;;;2.40;99.90;;;;;;5062741;28;20032;-70
2022/12/02 06:56:20;;;;;;;80.18;27.27;;;2.50;99.90;;;;;;5044077;28;20037;-71
2022/12/02 06:58:50;;;;;;;109.95;33.63;;;2.50;99.90;;;;;;5062710;28;20099;-69
2022/12/02 07:01:26;;;;;;;115.53;33.90;;;2.50;99.90;;;;;;5061937;28;20395;-69
2022/12/02 07:04:41;;;;;;;107.40;34.83;;;2.50;99.90;;;;;;5062634;28;20039;-70
2022/12/02 07:07:18;;;;;;;108.57;34.95;;;2.40;99.90;;;;;;5026981;28;20033;-68
2022/12/02 07:09:55;;;;;;;100.53;36.03;;;2.40;99.90;;;;;;5061450;28;20044;-69
2022/12/02 07:12:41;;;;;;;93.18;35.00;;;2.40;99.90;;;;;;5061335;28;20025;-70
2022/12/02 07:15:31;;;;;;;99.53;33.75;;;2.40;99.90;;;;;;5060872;28;20025;-68
2022/12/02 07:18:20;;;;;;;101.97;33.95;;;2.40;99.90;;;;;;5051170;28;20049;-69
2022/12/02 07:20:47;;;;;;;103.93;35.08;;;2.40;99.90;;;;;;5062212;28;20027;-69
2022/12/02 07:23:15;;;;;;;112.75;36.05;;;2.40;99.90;;;;;;5061892;28;20047;-68
2022/12/02 07:25:52;;;;;;;99.78;34.75;;;2.40;99.90;;;;;;5061336;28;20024;-70
2022/12/02 07:28:25;;;;;;;88.68;33.42;;;2.40;99.90;;;;;;5061578;28;20132;-69
2022/12/02 07:31:17;;;;;;;103.18;36.05;;;2.40;99.90;;;;;;5061378;28;20053;-69
2022/12/02 07:33:42;;;;;;;108.63;35.58;;;2.50;99.90;;;;;;5061107;28;20025;-69
2022/12/02 07:36:08;;;;;;;89.20;34.83;;;2.50;99.90;;;;;;5061995;28;20381;-68
2022/12/02 07:38:33;;;;;;;94.15;34.55;;;2.50;99.90;;;;;;5061636;28;20033;-70
2022/12/02 07:40:59;;;;;;;105.93;35.70;;;2.50;99.90;;;;;;5061981;28;20021;-70
2022/12/02 07:43:25;;;;;;;96.47;35.20;;;2.50;99.90;;;;;;5061413;28;20036;-70
2022/12/02 07:45:50;;;;;;;94.30;34.53;;;2.50;99.90;;;;;;5061324;28;20024;-70
2022/12/02 07:48:16;;;;;;;108.88;35.17;;;2.50;99.90;;;;;;5061519;28;20047;-69
2022/12/02 07:50:41;;;;;;;94.10;36.05;;;2.60;99.90;;;;;;5060858;28;20039;-70
2022/12/02 07:53:07;;;;;;;91.60;34.35;;;2.60;99.90;;;;;;5059017;28;20021;-69
2022/12/02 07:55:33;;;;;;;95.40;35.55;;;2.60;99.90;;;;;;5062016;28;20084;-71
2022/12/02 07:58:02;;;;;;;98.43;35.40;;;2.60;99.90;;;;;;5061030;28;20135;-69
2022/12/02 08:00:28;;;;;;;89.78;33.75;;;2.60;99.90;;;;;;5060266;28;20036;-69
2022/12/02 08:02:55;;;;;;;95.50;33.95;;;2.60;99.90;;;;;;5053619;28;20033;-68
2022/12/02 08:05:21;;;;;;;94.55;33.70;;;2.60;99.90;;;;;;5058293;28;20599;-69
2022/12/02 08:07:46;;;;;;;96.80;34.67;;;2.60;99.90;;;;;;5059894;28;20041;-69
2022/12/02 08:10:12;;;;;;;105.70;36.58;;;2.60;99.90;;;;;;5061053;28;20043;-69
2022/12/02 08:12:38;;;;;;;99.53;35.47;;;2.70;99.90;;;;;;5060540;28;20044;-70
2022/12/02 08:15:08;;;;;;;96.85;36.30;;;2.70;99.90;;;;;;5060311;28;20028;-69
2022/12/02 08:17:35;;;;;;;94.90;35.85;;;2.70;99.90;;;;;;5059324;28;20036;-69
2022/12/02 08:20:01;;;;;;;96.07;33.92;;;2.70;99.90;;;;;;5061262;28;20045;-68
2022/12/02 08:22:27;;;;;;;94.72;35.47;;;2.70;99.90;;;;;;5060439;28;20072;-69
2022/12/02 08:24:54;;;;;;;107.68;36.50;;;2.60;99.90;;;;;;5060669;28;20041;-68
2022/12/02 08:27:20;;;;;;;100.20;34.63;;;2.70;99.90;;;;;;5058499;28;20045;-68
2022/12/02 08:29:48;;;;;;;94.90;34.88;;;2.70;99.90;;;;;;5058825;28;21073;-69
2022/12/02 08:32:15;;;;;;;95.72;34.35;;;2.70;99.90;;;;;;5057761;28;20017;-70
2022/12/02 08:34:41;;;;;;;92.25;34.85;;;2.70;99.90;;;;;;5060112;28;20025;-68
2022/12/02 08:37:06;;;;;;;96.72;35.20;;;2.60;99.90;;;;;;5060748;28;20039;-69
2022/12/02 08:39:32;;;;;;;96.45;35.08;;;2.70;99.90;;;;;;5060404;28;20052;-70
2022/12/02 08:41:58;;;;;;;89.68;35.45;;;2.70;99.90;;;;;;5060984;28;20017;-69
2022/12/02 08:44:23;;;;;;;101.10;35.30;;;2.70;99.90;;;;;;5059778;28;20064;-68
2022/12/02 08:46:49;;;;;;;101.38;35.75;;;2.70;99.90;;;;;;5059270;28;20106;-69
2022/12/02 08:49:14;;;;;;;86.72;32.53;;;2.70;99.90;;;;;;5059311;28;20485;-69
2022/12/02 08:51:40;;;;;;;101.20;36.33;;;2.70;99.90;;;;;;5058633;28;20088;-70
2022/12/02 08:54:06;;;;;;;91.78;34.58;;;2.70;99.90;;;;;;5059521;28;20072;-70
2022/12/02 08:56:32;;;;;;;88.72;34.75;;;2.80;99.90;;;;;;5060434;28;20102;-69
2022/12/02 08:58:58;;;;;;;93.85;34.75;;;2.80;99.90;;;;;;5059802;28;20036;-68
2022/12/02 09:01:24;;;;;;;89.20;36.20;;;2.80;99.90;;;;;;5060900;28;20044;-69
2022/12/02 09:03:49;;;;;;;92.35;37.10;;;2.80;99.90;;;;;;5059842;28;20017;-68
2022/12/02 09:06:15;;;;;;;87.93;34.75;;;2.70;99.90;;;;;;5058996;28;20025;-69
2022/12/02 09:08:41;;;;;;;89.50;34.78;;;2.70;99.90;;;;;;5059310;28;20040;-68
2022/12/02 09:11:08;;;;;;;89.80;34.60;;;2.70;99.90;;;;;;5059975;28;20098;-68
2022/12/02 09:13:33;;;;;;;83.95;33.55;;;2.80;99.90;;;;;;5060543;28;20092;-70
2022/12/02 09:15:59;;;;;;;82.60;33.42;;;2.80;99.90;;;;;;5063217;28;20044;-69
2022/12/02 09:18:25;;;;;;;93.78;34.13;;;2.80;99.90;;;;;;5064644;28;20084;-68
2022/12/02 09:20:50;;;;;;;91.72;33.72;;;2.80;99.90;;;;;;5064290;28;20029;-67
2022/12/02 09:23:16;;;;;;;88.20;32.97;;;2.80;99.90;;;;;;5063779;28;20031;-69
2022/12/02 09:26:01;;;;;;;78.60;31.92;;;2.80;99.90;;;;;;5063465;28;20029;-70
2022/12/02 09:28:27;;;;;;;83.05;34.47;;;2.90;99.90;;;;;;5058676;28;20076;-69
2022/12/02 09:30:52;;;;;;;97.47;34.45;;;2.90;99.90;;;;;;5063723;28;20055;-69
2022/12/02 09:33:18;;;;;;;88.97;35.28;;;2.90;99.90;;;;;;5063984;28;20025;-68
2022/12/02 09:35:43;;;;;;;91.28;33.75;;;2.90;99.90;;;;;;5063917;28;20107;-68
2022/12/02 09:38:09;;;;;;;81.88;32.97;;;3.00;99.90;;;;;;5064291;28;20139;-69
2022/12/02 09:40:35;;;;;;;84.10;32.67;;;3.00;99.90;;;;;;5061026;28;20025;-69
2022/12/02 09:43:03;;;;;;;86.60;34.20;;;3.00;99.90;;;;;;5063853;28;20029;-69
2022/12/02 09:45:30;;;;;;;85.72;32.75;;;3.10;99.90;;;;;;5062591;28;20033;-69
2022/12/02 09:47:56;;;;;;;86.45;33.60;;;3.10;99.90;;;;;;5062778;28;20442;-70
2022/12/02 09:50:23;;;;;;;80.32;31.63;;;3.10;99.90;;;;;;5063060;28;20385;-70
2022/12/02 09:52:49;;;;;;;85.82;33.53;;;3.10;99.90;;;;;;5063025;28;20505;-69
2022/12/02 09:55:19;;;;;;;76.60;32.08;;;3.10;99.90;;;;;;5062422;28;20027;-71
2022/12/02 09:57:45;;;;;;;81.07;31.27;;;3.00;99.90;;;;;;5062662;28;20092;-70
2022/12/02 10:00:17;;;;;;;75.55;31.13;;;3.00;99.90;;;;;;5063714;28;20029;-70
2022/12/02 10:02:46;;;;;;;84.90;33.90;;;3.00;99.90;;;;;;5063141;28;20040;-69
2022/12/02 10:05:18;;;;;;;81.00;32.00;;;3.00;99.90;;;;;;5063083;28;20021;-69
2022/12/02 10:07:45;;;;;;;85.38;30.95;;;3.10;99.90;;;;;;5063636;28;20144;-69
2022/12/02 10:10:13;;;;;;;81.68;31.50;;;3.10;99.90;;;;;;5063399;28;20100;-69
2022/12/02 10:12:39;;;;;;;75.00;30.83;;;3.10;99.90;;;;;;5063431;28;20029;-70
2022/12/02 10:15:06;;;;;;;80.20;30.90;;;3.20;99.90;;;;;;5063214;28;20025;-70
2022/12/02 10:17:32;;;;;;;74.53;31.02;;;3.20;99.90;;;;;;5062823;28;20025;-69
2022/12/02 10:19:58;;;;;;;86.25;32.95;;;3.20;99.90;;;;;;5062697;28;20075;-69
2022/12/02 10:22:23;;;;;;;83.35;31.63;;;3.10;99.90;;;;;;5063450;28;20029;-70
2022/12/02 10:24:49;;;;;;;85.88;31.60;;;3.20;99.90;;;;;;5062127;28;20029;-70
2022/12/02 10:27:31;;;;;;;74.13;31.10;;;3.20;99.90;;;;;;5063410;28;20052;-69
2022/12/02 10:30:17;;;;;;;81.28;32.22;;;3.20;99.90;;;;;;5062952;28;20118;-69
2022/12/02 10:32:58;;;;;;;79.43;30.83;;;3.20;99.90;;;;;;5062589;28;20039;-69
2022/12/02 10:35:24;;;;;;;81.90;30.85;;;3.20;99.90;;;;;;5045348;28;20463;-70
2022/12/02 10:37:50;;;;;;;71.65;28.15;;;3.10;99.90;;;;;;5062625;28;20025;-69
2022/12/02 10:40:19;;;;;;;80.07;30.75;;;3.20;99.90;;;;;;5062773;28;20083;-69
2022/12/02 10:42:45;;;;;;;82.13;30.17;;;3.10;99.90;;;;;;5062481;28;20337;-70
2022/12/02 10:45:21;;;;;;;76.07;29.30;;;3.10;99.90;;;;;;5062304;28;20052;-69
2022/12/02 10:47:48;;;;;;;74.63;29.45;;;3.10;99.90;;;;;;5062557;28;20041;-69
2022/12/02 10:50:23;;;;;;;69.05;28.42;;;3.10;99.90;;;;;;5062989;28;20069;-69
2022/12/02 10:52:58;;;;;;;88.28;30.95;;;3.10;99.90;;;;;;5062087;28;20037;-70
2022/12/02 10:55:26;;;;;;;77.63;30.08;;;3.10;99.90;;;;;;5059102;28;20432;-70
2022/12/02 10:57:54;;;;;;;82.28;31.38;;;3.10;99.90;;;;;;5059918;28;20025;-68
2022/12/02 11:00:22;;;;;;;77.80;30.65;;;3.10;99.90;;;;;;5057809;28;20021;-70
2022/12/02 11:02:53;;;;;;;77.93;30.90;;;3.10;99.90;;;;;;5061553;28;20051;-70
2022/12/02 11:05:31;;;;;;;77.78;30.00;;;3.10;99.90;;;;;;5062496;28;20082;-69
2022/12/02 11:08:02;;;;;;;79.88;30.15;;;3.10;99.90;;;;;;5062419;28;20029;-69
2022/12/02 11:10:38;;;;;;;89.53;31.90;;;3.10;99.90;;;;;;5060995;28;20056;-69
2022/12/02 11:13:42;;;;;;;86.72;30.98;;;3.20;99.90;;;;;;5062676;28;20378;-69
2022/12/02 11:16:34;;;;;;;81.65;30.30;;;3.20;99.90;;;;;;5033693;28;20040;-70
2022/12/02 11:19:04;;;;;;;86.50;31.80;;;3.30;99.90;;;;;;5058022;28;20041;-68
2022/12/02 11:21:30;;;;;;;80.13;30.80;;;3.30;99.90;;;;;;5060568;28;20036;-70
2022/12/02 11:24:31;;;;;;;78.15;30.10;;;3.40;99.90;;;;;;5060530;28;20027;-68
2022/12/02 11:27:02;;;;;;;77.55;29.85;;;3.40;99.90;;;;;;5000822;28;20077;-71
2022/12/02 11:29:40;;;;;;;84.60;30.63;;;3.40;99.90;;;;;;5050242;28;20446;-69
2022/12/02 11:32:38;;;;;;;72.85;29.08;;;3.40;99.90;;;;;;5061821;28;20456;-69
2022/12/02 11:35:12;;;;;;;78.60;29.90;;;3.40;99.90;;;;;;5057169;28;20495;-71
2022/12/02 11:37:45;;;;;;;82.15;29.40;;;3.40;99.90;;;;;;5059882;28;20473;-71
2022/12/02 11:40:10;;;;;;;84.63;30.33;;;3.30;99.90;;;;;;5043390;28;20025;-69
2022/12/02 11:42:41;;;;;;;82.18;30.45;;;3.40;99.90;;;;;;5059507;28;20035;-69
2022/12/02 11:45:15;;;;;;;83.78;30.42;;;3.40;99.90;;;;;;5060944;28;20028;-70
2022/12/02 11:47:43;;;;;;;83.72;30.55;;;3.40;99.90;;;;;;5057536;28;20048;-69
2022/12/02 11:50:37;;;;;;;83.05;30.00;;;3.40;99.90;;;;;;5059703;28;20017;-70
2022/12/02 11:53:17;;;;;;;82.32;31.98;;;3.40;99.90;;;;;;5058935;28;20039;-70
2022/12/02 11:55:51;;;;;;;79.35;30.52;;;3.40;99.90;;;;;;5060790;28;20032;-70
2022/12/02 11:58:27;;;;;;;71.93;29.00;;;3.40;99.90;;;;;;5059670;28;20013;-70
2022/12/02 12:01:21;;;;;;;90.22;32.00;;;3.40;99.90;;;;;;5060471;28;20041;-69
2022/12/02 12:03:51;;;;;;;78.10;30.23;;;3.40;99.90;;;;;;5059926;28;20049;-69
2022/12/02 12:06:17;;;;;;;76.60;29.92;;;3.40;99.90;;;;;;5060485;28;20024;-70
2022/12/02 12:08:49;;;;;;;85.82;30.20;;;3.50;99.90;;;;;;5061388;28;20039;-70
2022/12/02 12:11:29;;;;;;;83.13;31.85;;;3.50;99.90;;;;;;5060734;28;20084;-69
2022/12/02 12:14:03;;;;;;;80.35;30.17;;;3.50;99.90;;;;;;5061023;28;20029;-69
2022/12/02 12:16:31;;;;;;;93.18;31.33;;;3.50;99.90;;;;;;5060695;28;20031;-71
2022/12/02 12:19:26;;;;;;;80.90;30.35;;;3.50;99.90;;;;;;5060715;28;20091;-70
2022/12/02 12:21:54;;;;;;;81.93;32.13;;;3.60;99.90;;;;;;5061618;28;20044;-69
2022/12/02 12:24:22;;;;;;;88.38;33.20;;;3.70;99.90;;;;;;5061018;28;20021;-69
2022/12/02 12:27:03;;;;;;;80.18;30.45;;;3.70;99.90;;;;;;5060877;28;20028;-69
2022/12/02 12:29:32;;;;;;;72.75;30.17;;;3.80;99.90;;;;;;5053868;28;20041;-69
2022/12/02 12:31:57;;;;;;;82.82;31.08;;;3.80;99.90;;;;;;5046277;28;20120;-70
2022/12/02 12:34:23;;;;;;;82.55;31.55;;;3.80;99.90;;;;;;5058781;28;20102;-69
2022/12/02 12:36:49;;;;;;;79.40;30.98;;;3.80;99.90;;;;;;5059756;28;20036;-69
2022/12/02 12:39:15;;;;;;;78.38;30.05;;;3.80;99.90;;;;;;5058421;28;20137;-70
2022/12/02 12:41:41;;;;;;;82.75;31.25;;;3.70;99.90;;;;;;5059590;28;20051;-69
2022/12/02 12:44:07;;;;;;;85.60;30.25;;;3.70;99.90;;;;;;5060520;28;20119;-69
2022/12/02 12:46:33;;;;;;;78.20;30.95;;;3.60;99.90;;;;;;5059561;28;20021;-69
2022/12/02 12:48:58;;;;;;;85.43;30.67;;;3.60;99.90;;;;;;5060266;28;20049;-70